createdAt,value
2022-10-28T00:01:06.280Z,97403.53
2022-10-28T00:03:35.004Z,97402.22
2022-10-28T00:06:04.052Z,97399.66
2022-10-28T00:08:32.299Z,97400.41
2022-10-28T00:11:05.788Z,97398.72
2022-10-28T00:13:34.617Z,97405.22
2022-10-28T00:16:10.416Z,97404.38
2022-10-28T00:18:39.352Z,97402.56
2022-10-28T00:21:09.745Z,97397.50
2022-10-28T00:23:38.566Z,97394.50
2022-10-28T00:26:08.297Z,97399.19
2022-10-28T00:28:36.751Z,97391.31
2022-10-28T00:31:08.500Z,97391.31
2022-10-28T00:33:36.614Z,97398.59
2022-10-28T00:36:17.287Z,97400.59
2022-10-28T00:38:47.142Z,97396.88
2022-10-28T00:41:18.008Z,97394.47
2022-10-28T00:43:47.999Z,97400.59
2022-10-28T00:46:26.282Z,97398.69
2022-10-28T00:48:59.644Z,97404.94
2022-10-28T00:51:30.278Z,97395.53
2022-10-28T00:53:59.368Z,97394.81
2022-10-28T00:56:31.830Z,97396.72
2022-10-28T00:59:04.182Z,97396.50
2022-10-28T01:01:33.607Z,97391.91
2022-10-28T01:04:01.956Z,97390.97
2022-10-28T01:06:31.025Z,97383.72
2022-10-28T01:09:00.123Z,97390.72
2022-10-28T01:11:46.311Z,97386.38
2022-10-28T01:14:24.025Z,97389.75
2022-10-28T01:17:09.935Z,97384.59
2022-10-28T01:20:08.832Z,97382.28
2022-10-28T01:22:43.621Z,97385.88
2022-10-28T01:25:36.658Z,97379.50
2022-10-28T01:28:28.478Z,97375.75
2022-10-28T01:31:25.870Z,97375.75
2022-10-28T01:33:59.121Z,97376.09
2022-10-28T01:36:37.145Z,97369.22
2022-10-28T01:39:26.027Z,97374.63
2022-10-28T01:42:00.376Z,97375.47
2022-10-28T01:44:33.941Z,97372.09
2022-10-28T01:47:10.903Z,97369.69
2022-10-28T01:49:42.643Z,97366.28
2022-10-28T01:52:14.254Z,97367.88
2022-10-28T01:54:46.843Z,97372.66
2022-10-28T01:57:17.798Z,97365.78
2022-10-28T01:59:48.294Z,97363.63
2022-10-28T02:02:19.512Z,97365.34
2022-10-28T02:04:47.456Z,97360.84
2022-10-28T02:07:16.527Z,97360.22
2022-10-28T02:09:59.128Z,97355.63
2022-10-28T02:12:29.612Z,97355.16
2022-10-28T02:15:26.503Z,97355.28
2022-10-28T02:18:12.293Z,97360.69
2022-10-28T02:20:50.840Z,97356.31
2022-10-28T02:23:23.711Z,97348.63
2022-10-28T02:26:00.420Z,97347.31
2022-10-28T02:28:39.196Z,97351.03
2022-10-28T02:31:12.315Z,97343.47
2022-10-28T02:33:43.196Z,97343.69
2022-10-28T02:36:15.191Z,97333.59
2022-10-28T02:38:47.878Z,97346.34
2022-10-28T02:41:21.516Z,97342.88
2022-10-28T02:43:54.895Z,97342.22
2022-10-28T02:46:26.030Z,97342.22
2022-10-28T02:48:58.570Z,97344.88
2022-10-28T02:51:31.181Z,97347.13
2022-10-28T02:54:04.176Z,97343.78
2022-10-28T02:56:38.064Z,97349.59
2022-10-28T02:59:11.077Z,97343.66
2022-10-28T03:01:39.360Z,97338.50
2022-10-28T03:04:08.940Z,97341.84
2022-10-28T03:06:37.060Z,97343.56
2022-10-28T03:09:05.061Z,97339.47
2022-10-28T03:11:33.072Z,97351.22
2022-10-28T03:14:01.065Z,97347.25
2022-10-28T03:16:28.930Z,97345.91
2022-10-28T03:18:57.104Z,97341.84
2022-10-28T03:21:26.683Z,97343.19
2022-10-28T03:23:54.672Z,97342.00
2022-10-28T03:26:22.724Z,97345.38
2022-10-28T03:28:50.887Z,97336.22
2022-10-28T03:31:18.995Z,97340.34
2022-10-28T03:33:46.967Z,97335.75
2022-10-28T03:36:14.905Z,97342.88
2022-10-28T03:38:44.193Z,97336.59
2022-10-28T03:41:12.101Z,97344.19
2022-10-28T03:43:40.118Z,97329.13
2022-10-28T03:46:08.143Z,97334.44
2022-10-28T03:48:36.382Z,97322.88
2022-10-28T03:51:04.516Z,97323.81
2022-10-28T03:53:32.462Z,97328.78
2022-10-28T03:56:02.935Z,97323.47
2022-10-28T03:58:31.513Z,97324.19
2022-10-28T04:00:59.675Z,97319.72
2022-10-28T04:03:27.843Z,97317.22
2022-10-28T04:05:55.847Z,97316.34
2022-10-28T04:08:23.755Z,97313.56
2022-10-28T04:10:51.798Z,97317.91
2022-10-28T04:13:21.091Z,97316.34
2022-10-28T04:15:48.978Z,97314.41
2022-10-28T04:18:16.921Z,97318.63
2022-10-28T04:20:46.550Z,97319.72
2022-10-28T04:23:16.750Z,97311.75
2022-10-28T04:25:44.927Z,97312.50
2022-10-28T04:28:13.049Z,97314.78
2022-10-28T04:30:42.319Z,97313.69
2022-10-28T04:33:13.320Z,97318.16
2022-10-28T04:35:43.111Z,97320.09
2022-10-28T04:38:11.459Z,97319.00
2022-10-28T04:40:39.459Z,97315.25
2022-10-28T04:43:09.721Z,97319.84
2022-10-28T04:45:39.073Z,97312.88
2022-10-28T04:48:09.944Z,97322.38
2022-10-28T04:50:37.817Z,97320.72
2022-10-28T04:53:11.751Z,97316.97
2022-10-28T04:55:39.837Z,97323.00
2022-10-28T04:58:07.763Z,97325.53
2022-10-28T05:00:35.926Z,97317.56
2022-10-28T05:03:04.887Z,97315.75
2022-10-28T05:05:34.308Z,97308.03
2022-10-28T05:08:02.497Z,97304.28
2022-10-28T05:10:30.723Z,97307.56
2022-10-28T05:12:58.679Z,97301.38
2022-10-28T05:15:27.140Z,97291.75
2022-10-28T05:17:55.767Z,97292.38
2022-10-28T05:20:24.311Z,97296.94
2022-10-28T05:22:55.831Z,97296.47
2022-10-28T05:25:24.767Z,97291.38
2022-10-28T05:27:53.892Z,97293.31
2022-10-28T05:30:21.859Z,97295.13
2022-10-28T05:32:52.889Z,97291.88
2022-10-28T05:35:23.157Z,97293.09
2022-10-28T05:37:53.076Z,97291.16
2022-10-28T05:40:20.981Z,97294.38
2022-10-28T05:42:48.843Z,97296.69
2022-10-28T05:45:17.165Z,97302.50
2022-10-28T05:47:46.398Z,97295.72
2022-10-28T05:50:15.830Z,97296.91
2022-10-28T05:52:46.787Z,97298.84
2022-10-28T05:55:16.611Z,97299.72
2022-10-28T05:57:44.522Z,97298.97
2022-10-28T06:00:14.568Z,97288.72
2022-10-28T06:02:43.078Z,97294.88
2022-10-28T06:05:11.850Z,97299.22
2022-10-28T06:07:40.970Z,97298.72
2022-10-28T06:10:11.506Z,97296.78
2022-10-28T06:12:39.322Z,97304.00
2022-10-28T06:15:08.364Z,97300.28
2022-10-28T06:17:36.343Z,97301.00
2022-10-28T06:20:05.466Z,97309.22
2022-10-28T06:22:33.449Z,97309.22
2022-10-28T06:25:01.396Z,97304.16
2022-10-28T06:27:29.999Z,97306.31
2022-10-28T06:29:59.252Z,97305.22
2022-10-28T06:32:27.177Z,97299.91
2022-10-28T06:34:55.109Z,97297.53
2022-10-28T06:37:23.077Z,97288.75
2022-10-28T06:39:52.087Z,97293.91
2022-10-28T06:42:20.289Z,97295.38
2022-10-28T06:44:49.285Z,97289.09
2022-10-28T06:47:20.013Z,97297.56
2022-10-28T06:49:48.049Z,97290.06
2022-10-28T06:52:16.061Z,97280.91
2022-10-28T06:54:44.498Z,97284.88
2022-10-28T06:57:12.552Z,97290.66
2022-10-28T06:59:40.492Z,97294.03
2022-10-28T07:02:10.446Z,97308.03
2022-10-28T07:04:39.874Z,97319.25
2022-10-28T07:07:07.796Z,97321.69
2022-10-28T07:09:39.457Z,97322.16
2022-10-28T07:12:08.624Z,97328.31
2022-10-28T07:14:36.673Z,97325.41
2022-10-28T07:17:04.879Z,97326.00
2022-10-28T07:19:32.918Z,97332.88
2022-10-28T07:22:02.136Z,97334.34
2022-10-28T07:24:30.086Z,97333.25
2022-10-28T07:26:58.061Z,97336.47
2022-10-28T07:29:26.009Z,97338.06
2022-10-28T07:31:55.596Z,97332.50
2022-10-28T07:34:26.956Z,97332.38
2022-10-28T07:36:56.575Z,97333.97
2022-10-28T07:39:26.081Z,97338.22
2022-10-28T07:41:54.103Z,97334.31
2022-10-28T07:44:22.139Z,97335.78
2022-10-28T07:46:53.056Z,97344.81
2022-10-28T07:49:23.787Z,97347.09
2022-10-28T07:51:52.232Z,97349.63
2022-10-28T07:54:20.278Z,97354.81
2022-10-28T07:56:49.597Z,97352.78
2022-10-28T07:59:17.606Z,97341.06
2022-10-28T08:01:45.658Z,97349.75
2022-10-28T08:04:13.686Z,97358.19
2022-10-28T08:06:41.683Z,97349.69
2022-10-28T08:09:09.842Z,97353.78
2022-10-28T08:11:37.757Z,97346.53
2022-10-28T08:14:06.992Z,97347.97
2022-10-28T08:16:34.955Z,97354.97
2022-10-28T08:19:07.517Z,97358.09
2022-10-28T08:21:35.913Z,97360.00
2022-10-28T08:24:03.772Z,97352.34
2022-10-28T08:26:31.786Z,97352.69
2022-10-28T08:29:01.518Z,97347.44
2022-10-28T08:31:33.072Z,97345.25
2022-10-28T08:34:01.037Z,97347.25
2022-10-28T08:36:28.896Z,97340.69
2022-10-28T08:38:59.208Z,97340.91
2022-10-28T08:41:36.037Z,97339.53
2022-10-28T08:44:31.960Z,97338.06
2022-10-28T08:47:14.705Z,97341.75
2022-10-28T08:49:47.049Z,97339.97
2022-10-28T08:52:29.556Z,97348.16
2022-10-28T08:55:03.517Z,97343.00
2022-10-28T08:57:40.388Z,97339.53
2022-10-28T09:00:14.679Z,97346.72
2022-10-28T09:02:54.803Z,97344.66
2022-10-28T09:05:24.771Z,97355.34
2022-10-28T09:07:53.964Z,97355.66
2022-10-28T09:10:37.221Z,97360.81
2022-10-28T09:13:12.408Z,97377.00
2022-10-28T09:15:48.010Z,97375.31
2022-10-28T09:18:20.454Z,97367.19
2022-10-28T09:20:54.103Z,97328.88
2022-10-28T09:23:24.903Z,97326.25
2022-10-28T09:26:06.866Z,97335.81
2022-10-28T09:28:59.101Z,97351.50
2022-10-28T09:31:35.698Z,97351.84
2022-10-28T09:34:17.679Z,97350.72
2022-10-28T09:36:49.913Z,97347.50
2022-10-28T09:39:25.328Z,97349.59
2022-10-28T09:41:58.453Z,97349.59
2022-10-28T09:44:34.298Z,97344.97
2022-10-28T09:47:05.619Z,97338.66
2022-10-28T09:49:39.937Z,97345.09
2022-10-28T09:52:16.233Z,97349.88
2022-10-28T09:54:48.236Z,97344.09
2022-10-28T09:57:17.397Z,97345.38
2022-10-28T09:59:45.882Z,97336.94
2022-10-28T10:02:27.558Z,97333.00
2022-10-28T10:04:58.416Z,97338.31
2022-10-28T10:07:33.502Z,97363.72
2022-10-28T10:10:06.868Z,97373.44
2022-10-28T10:12:35.300Z,97368.22
2022-10-28T10:15:08.134Z,97336.19
2022-10-28T10:17:41.543Z,97329.28
2022-10-28T10:20:13.585Z,97334.78
2022-10-28T10:22:43.211Z,97338.97
2022-10-28T10:25:31.106Z,97341.38
2022-10-28T10:28:02.759Z,97347.44
2022-10-28T10:30:34.327Z,97340.53
2022-10-28T10:33:03.870Z,97327.88
2022-10-28T10:35:35.439Z,97348.22
2022-10-28T10:38:06.606Z,97336.41
2022-10-28T10:40:38.183Z,97345.13
2022-10-28T10:43:23.133Z,97340.19
2022-10-28T10:46:01.349Z,97339.03
2022-10-28T10:48:30.108Z,97337.78
2022-10-28T10:51:05.385Z,97333.13
2022-10-28T10:53:34.382Z,97326.91
2022-10-28T10:56:04.642Z,97337.00
2022-10-28T10:58:35.347Z,97336.41
2022-10-28T11:01:07.316Z,97332.31
2022-10-28T11:03:38.827Z,97324.66
2022-10-28T11:06:23.636Z,97317.19
2022-10-28T11:08:57.483Z,97316.03
2022-10-28T11:11:35.252Z,97308.44
2022-10-28T11:14:05.435Z,97316.28
2022-10-28T11:16:33.277Z,97324.69
2022-10-28T11:19:16.979Z,97327.47
2022-10-28T11:21:59.264Z,97317.91
2022-10-28T11:24:40.722Z,97302.38
2022-10-28T11:27:23.057Z,97313.06
2022-10-28T11:29:51.348Z,97305.91
2022-10-28T11:32:29.111Z,97286.06
2022-10-28T11:35:26.745Z,97276.97
2022-10-28T11:38:08.287Z,97248.81
2022-10-28T11:40:59.100Z,97249.03
2022-10-28T11:43:38.444Z,97223.31
2022-10-28T11:46:14.366Z,97251.81
2022-10-28T11:49:00.079Z,97252.28
2022-10-28T11:51:39.102Z,97232.53
2022-10-28T11:54:24.922Z,97218.06
2022-10-28T11:57:00.426Z,97224.41
2022-10-28T11:59:51.677Z,97237.66
2022-10-28T12:02:39.624Z,97235.69
2022-10-28T12:05:17.612Z,97247.75
2022-10-28T12:08:03.774Z,97261.63
2022-10-28T12:10:44.098Z,97275.91
2022-10-28T12:13:21.152Z,97271.44
2022-10-28T12:15:57.512Z,97271.16
2022-10-28T12:18:33.143Z,97277.56
2022-10-28T12:21:08.423Z,97262.47
2022-10-28T12:23:39.069Z,97263.84
2022-10-28T12:26:13.652Z,97256.16
2022-10-28T12:28:46.662Z,97262.88
2022-10-28T12:31:23.211Z,97254.84
2022-10-28T12:33:54.216Z,97252.16
2022-10-28T12:36:32.000Z,97253.53
2022-10-28T12:39:03.588Z,97250.16
2022-10-28T12:41:47.737Z,97245.50
2022-10-28T12:44:19.983Z,97237.59
2022-10-28T12:46:58.225Z,97239.78
2022-10-28T12:49:36.794Z,97243.34
2022-10-28T12:52:15.615Z,97242.66
2022-10-28T12:54:53.772Z,97241.50
2022-10-28T12:57:26.574Z,97242.19
2022-10-28T13:00:00.033Z,97240.00
2022-10-28T13:02:34.524Z,97249.94
2022-10-28T13:05:05.532Z,97258.31
2022-10-28T13:07:56.185Z,97255.00
2022-10-28T13:10:36.992Z,97237.88
2022-10-28T13:13:28.751Z,97240.59
2022-10-28T13:16:11.579Z,97244.31
2022-10-28T13:19:09.181Z,97243.63
2022-10-28T13:22:09.897Z,97242.13
2022-10-28T13:24:48.349Z,97236.91
2022-10-28T13:27:17.255Z,97241.44
2022-10-28T13:29:52.683Z,97235.53
2022-10-28T13:32:38.580Z,97239.59
2022-10-28T13:35:17.171Z,97247.28
2022-10-28T13:37:48.590Z,97241.09
2022-10-28T13:40:44.614Z,97230.53
2022-10-28T13:43:20.013Z,97231.50
2022-10-28T13:45:54.350Z,97230.00
2022-10-28T13:48:49.252Z,97236.56
2022-10-28T13:51:34.349Z,97236.03
2022-10-28T13:54:02.645Z,97232.03
2022-10-28T13:56:48.441Z,97229.03
2022-10-28T13:59:28.214Z,97240.59
2022-10-28T14:02:34.999Z,97241.66
2022-10-28T14:04:58.090Z,97237.28
2022-10-28T14:07:30.191Z,97243.00
2022-10-28T14:10:17.629Z,97254.75
2022-10-28T14:12:51.392Z,97247.88
2022-10-28T14:15:24.186Z,97245.34
2022-10-28T14:18:05.135Z,97252.25
2022-10-28T14:21:00.808Z,97245.72
2022-10-28T14:24:06.773Z,97251.41
2022-10-28T14:27:29.961Z,97256.78
2022-10-28T14:30:22.546Z,97260.13
2022-10-28T14:33:22.164Z,97258.78
2022-10-28T14:36:01.076Z,97266.50
2022-10-28T14:38:56.958Z,97269.34
2022-10-28T14:41:46.941Z,97271.69
2022-10-28T14:44:33.705Z,97269.50
2022-10-28T14:47:24.146Z,97268.94
2022-10-28T14:50:02.069Z,97265.75
2022-10-28T14:52:31.813Z,97265.09
2022-10-28T14:55:02.801Z,97263.09
2022-10-28T14:57:34.043Z,97259.72
2022-10-28T15:00:06.148Z,97264.06
2022-10-28T15:02:37.016Z,97259.03
2022-10-28T15:05:16.554Z,97261.03
2022-10-28T15:07:45.291Z,97263.38
2022-10-28T15:10:18.918Z,97252.31
2022-10-28T15:12:49.601Z,97253.78
2022-10-28T15:15:19.717Z,97260.50
2022-10-28T15:17:48.563Z,97251.94
2022-10-28T15:20:24.340Z,97246.22
2022-10-28T15:22:52.572Z,97245.88
2022-10-28T15:25:22.530Z,97241.34
2022-10-28T15:27:53.411Z,97241.69
2022-10-28T15:30:23.855Z,97236.63
2022-10-28T15:32:53.125Z,97236.28
2022-10-28T15:35:41.487Z,97228.44
2022-10-28T15:38:39.206Z,97233.94
2022-10-28T15:41:39.401Z,97229.91
2022-10-28T15:44:07.481Z,97231.06
2022-10-28T15:46:35.715Z,97243.97
2022-10-28T15:49:03.895Z,97239.91
2022-10-28T15:51:33.321Z,97243.75
2022-10-28T15:54:12.238Z,97243.56
2022-10-28T15:56:55.797Z,97244.03
2022-10-28T15:59:26.235Z,97246.03
2022-10-28T16:01:56.477Z,97250.84
2022-10-28T16:04:44.974Z,97241.25
2022-10-28T16:07:14.702Z,97244.41
2022-10-28T16:09:46.813Z,97257.94
2022-10-28T16:12:17.139Z,97251.06
2022-10-28T16:14:48.702Z,97254.41
2022-10-28T16:17:19.149Z,97249.81
2022-10-28T16:19:53.709Z,97253.13
2022-10-28T16:22:26.943Z,97255.59
2022-10-28T16:24:55.997Z,97257.06
2022-10-28T16:27:26.633Z,97258.50
2022-10-28T16:29:54.985Z,97248.59
2022-10-28T16:32:27.378Z,97250.56
2022-10-28T16:34:56.625Z,97246.69
2022-10-28T16:37:27.726Z,97248.13
2022-10-28T16:39:56.120Z,97255.94
2022-10-28T16:42:25.225Z,97252.06
2022-10-28T16:44:53.741Z,97259.50
2022-10-28T16:47:25.605Z,97265.34
2022-10-28T16:49:57.510Z,97265.94
2022-10-28T16:52:29.944Z,97263.03
2022-10-28T16:54:58.778Z,97270.53
2022-10-28T16:57:27.040Z,97274.63
2022-10-28T16:59:55.278Z,97277.94
2022-10-28T17:02:27.505Z,97287.94
2022-10-28T17:04:55.613Z,97289.91
2022-10-28T17:07:23.819Z,97289.06
2022-10-28T17:09:53.510Z,97290.66
2022-10-28T17:12:25.920Z,97283.25
2022-10-28T17:14:54.347Z,97288.47
2022-10-28T17:17:22.443Z,97289.09
2022-10-28T17:19:51.113Z,97294.03
2022-10-28T17:22:19.027Z,97287.44
2022-10-28T17:24:47.163Z,97288.19
2022-10-28T17:27:16.984Z,97287.09
2022-10-28T17:29:45.112Z,97300.06
2022-10-28T17:32:14.012Z,97287.53
2022-10-28T17:34:41.949Z,97294.16
2022-10-28T17:37:10.449Z,97302.72
2022-10-28T17:39:38.829Z,97303.63
2022-10-28T17:42:06.836Z,97311.78
2022-10-28T17:44:36.586Z,97317.69
2022-10-28T17:47:04.634Z,97312.94
2022-10-28T17:49:34.330Z,97319.81
2022-10-28T17:52:02.299Z,97322.22
2022-10-28T17:54:30.245Z,97330.50
2022-10-28T17:56:58.283Z,97331.06
2022-10-28T17:59:26.309Z,97330.25
2022-10-28T18:01:55.726Z,97326.59
2022-10-28T18:04:26.448Z,97321.78
2022-10-28T18:06:55.299Z,97317.34
2022-10-28T18:09:23.704Z,97322.09
2022-10-28T18:11:52.115Z,97317.75
2022-10-28T18:14:21.115Z,97317.31
2022-10-28T18:16:51.112Z,97319.72
2022-10-28T18:19:20.455Z,97333.31
2022-10-28T18:21:48.907Z,97329.09
2022-10-28T18:24:18.536Z,97326.28
2022-10-28T18:26:48.063Z,97320.38
2022-10-28T18:29:16.003Z,97321.47
2022-10-28T18:31:44.392Z,97311.09
2022-10-28T18:34:12.841Z,97313.06
2022-10-28T18:36:42.428Z,97321.47
2022-10-28T18:39:10.670Z,97315.28
2022-10-28T18:41:43.077Z,97321.59
2022-10-28T18:44:13.029Z,97328.44
2022-10-28T18:46:41.538Z,97327.91
2022-10-28T18:49:09.521Z,97323.53
2022-10-28T18:51:37.854Z,97323.69
2022-10-28T18:54:08.208Z,97332.66
2022-10-28T18:56:36.284Z,97332.22
2022-10-28T18:59:06.952Z,97331.94
2022-10-28T19:01:36.255Z,97328.31
2022-10-28T19:04:05.745Z,97331.94
2022-10-28T19:06:35.191Z,97330.25
2022-10-28T19:09:05.216Z,97327.91
2022-10-28T19:11:35.542Z,97328.44
2022-10-28T19:14:04.927Z,97333.34
2022-10-28T19:16:35.068Z,97328.75
2022-10-28T19:19:05.152Z,97330.13
2022-10-28T19:21:33.854Z,97322.97
2022-10-28T19:24:02.183Z,97321.28
2022-10-28T19:26:31.871Z,97324.94
2022-10-28T19:29:01.591Z,97315.09
2022-10-28T19:31:30.775Z,97313.84
2022-10-28T19:33:58.917Z,97309.47
2022-10-28T19:36:28.366Z,97310.88
2022-10-28T19:38:57.743Z,97308.34
2022-10-28T19:41:28.194Z,97305.13
2022-10-28T19:43:58.568Z,97304.41
2022-10-28T19:46:29.855Z,97316.19
2022-10-28T19:48:59.527Z,97315.03
2022-10-28T19:51:29.684Z,97317.41
2022-10-28T19:53:59.914Z,97317.81
2022-10-28T19:56:29.159Z,97321.13
2022-10-28T19:58:59.314Z,97324.63
2022-10-28T20:01:30.673Z,97327.69
2022-10-28T20:03:59.554Z,97320.94
2022-10-28T20:06:31.167Z,97320.91
2022-10-28T20:08:59.303Z,97321.63
2022-10-28T20:11:29.338Z,97328.06
2022-10-28T20:14:00.757Z,97331.56
2022-10-28T20:16:30.323Z,97335.44
2022-10-28T20:18:59.317Z,97332.34
2022-10-28T20:21:29.352Z,97338.78
2022-10-28T20:23:58.588Z,97338.44
2022-10-28T20:26:28.437Z,97339.53
2022-10-28T20:28:57.278Z,97338.09
2022-10-28T20:31:26.999Z,97344.97
2022-10-28T20:33:58.691Z,97345.97
2022-10-28T20:36:28.135Z,97345.91
2022-10-28T20:38:57.267Z,97340.84
2022-10-28T20:41:26.312Z,97348.94
2022-10-28T20:43:55.301Z,97350.31
2022-10-28T20:46:24.355Z,97347.78
2022-10-28T20:48:54.068Z,97351.78
2022-10-28T20:51:24.845Z,97357.75
2022-10-28T20:53:53.267Z,97350.50
2022-10-28T20:56:23.884Z,97356.06
2022-10-28T20:58:52.803Z,97353.53
2022-10-28T21:01:22.532Z,97348.22
2022-10-28T21:03:53.862Z,97345.81
2022-10-28T21:06:23.792Z,97349.81
2022-10-28T21:08:51.921Z,97345.47
2022-10-28T21:11:20.262Z,97342.81
2022-10-28T21:13:52.841Z,97341.97
2022-10-28T21:16:21.360Z,97346.13
2022-10-28T21:18:49.954Z,97341.91
2022-10-28T21:21:18.932Z,97346.72
2022-10-28T21:23:48.445Z,97349.91
2022-10-28T21:26:16.659Z,97352.13
2022-10-28T21:28:45.347Z,97354.78
2022-10-28T21:31:14.839Z,97359.38
2022-10-28T21:33:43.618Z,97359.84
2022-10-28T21:36:13.410Z,97362.66
2022-10-28T21:38:41.569Z,97360.13
2022-10-28T21:41:13.688Z,97360.94
2022-10-28T21:43:43.603Z,97363.16
2022-10-28T21:46:11.874Z,97365.06
2022-10-28T21:48:40.001Z,97367.38
2022-10-28T21:51:13.465Z,97371.00
2022-10-28T21:53:42.937Z,97371.94
2022-10-28T21:56:17.681Z,97377.28
2022-10-28T21:58:47.483Z,97368.56
2022-10-28T22:01:18.570Z,97371.22
2022-10-28T22:03:46.688Z,97368.72
2022-10-28T22:06:15.334Z,97366.75
2022-10-28T22:08:43.543Z,97376.53
2022-10-28T22:11:14.837Z,97364.09
2022-10-28T22:13:43.136Z,97362.41
2022-10-28T22:16:12.862Z,97374.63
2022-10-28T22:18:41.358Z,97383.84
2022-10-28T22:21:11.805Z,97377.66
2022-10-28T22:23:40.413Z,97379.47
2022-10-28T22:26:10.381Z,97370.19
2022-10-28T22:28:39.855Z,97376.81
2022-10-28T22:31:10.224Z,97381.41
2022-10-28T22:33:38.304Z,97385.25
2022-10-28T22:36:09.026Z,97380.91
2022-10-28T22:38:37.113Z,97383.56
2022-10-28T22:41:06.408Z,97385.63
2022-10-28T22:43:34.997Z,97384.06
2022-10-28T22:46:04.930Z,97383.91
2022-10-28T22:48:33.861Z,97385.00
2022-10-28T22:51:06.678Z,97381.63
2022-10-28T22:53:34.683Z,97387.19
2022-10-28T22:56:02.728Z,97389.84
2022-10-28T22:58:30.618Z,97388.75
2022-10-28T23:01:08.492Z,97400.09
2022-10-28T23:03:37.976Z,97391.16
2022-10-28T23:06:06.703Z,97387.19
2022-10-28T23:08:34.760Z,97389.13
2022-10-28T23:11:02.664Z,97386.47
2022-10-28T23:13:30.737Z,97395.63
2022-10-28T23:16:03.066Z,97386.97
2022-10-28T23:18:32.487Z,97394.94
2022-10-28T23:21:05.017Z,97393.47
2022-10-28T23:23:32.987Z,97389.84
2022-10-28T23:26:00.897Z,97385.25
2022-10-28T23:28:28.852Z,97382.34
2022-10-28T23:31:00.701Z,97390.81
2022-10-28T23:33:29.241Z,97391.28
2022-10-28T23:35:59.570Z,97379.84
2022-10-28T23:38:27.530Z,97388.75
2022-10-28T23:40:57.215Z,97387.19
2022-10-28T23:43:25.227Z,97394.31
2022-10-28T23:45:54.400Z,97382.38
2022-10-28T23:48:22.731Z,97386.34
2022-10-28T23:50:51.015Z,97381.16
2022-10-28T23:53:20.686Z,97384.75
2022-10-28T23:55:50.366Z,97392.50
2022-10-28T23:58:19.941Z,97390.56
